sensor_id;sensor_type;location;lat;lon;timestamp;P1;durP1;ratioP1;P2;durP2;ratioP2
18659;SDS011;9459;50.254;19.014;2023-03-14T00:02:09;3.53;;;2.33;;
18659;SDS011;9459;50.254;19.014;2023-03-14T00:04:37;7.25;;;2.58;;
18659;SDS011;9459;50.254;19.014;2023-03-14T00:07:06;5.68;;;2.50;;
18659;SDS011;9459;50.254;19.014;2023-03-14T00:09:34;5.18;;;2.70;;
18659;SDS011;9459;50.254;19.014;2023-03-14T00:12:04;12.00;;;5.97;;
18659;SDS011;9459;50.254;19.014;2023-03-14T00:14:33;4.15;;;2.42;;
18659;SDS011;9459;50.254;19.014;2023-03-14T00:17:02;6.50;;;3.05;;
18659;SDS011;9459;50.254;19.014;2023-03-14T00:19:30;8.02;;;4.28;;
18659;SDS011;9459;50.254;19.014;2023-03-14T00:21:59;6.28;;;3.40;;
18659;SDS011;9459;50.254;19.014;2023-03-14T00:24:29;7.38;;;3.40;;
18659;SDS011;9459;50.254;19.014;2023-03-14T00:26:58;9.63;;;4.80;;
18659;SDS011;9459;50.254;19.014;2023-03-14T00:29:27;12.32;;;5.40;;
18659;SDS011;9459;50.254;19.014;2023-03-14T00:31:56;10.27;;;5.32;;
18659;SDS011;9459;50.254;19.014;2023-03-14T00:34:28;7.38;;;3.67;;
18659;SDS011;9459;50.254;19.014;2023-03-14T00:36:56;5.30;;;2.95;;
18659;SDS011;9459;50.254;19.014;2023-03-14T00:39:25;10.57;;;5.50;;
18659;SDS011;9459;50.254;19.014;2023-03-14T00:41:53;7.88;;;3.90;;
18659;SDS011;9459;50.254;19.014;2023-03-14T00:44:21;8.35;;;4.47;;
18659;SDS011;9459;50.254;19.014;2023-03-14T00:46:51;7.32;;;3.78;;
18659;SDS011;9459;50.254;19.014;2023-03-14T00:49:20;8.73;;;3.88;;
18659;SDS011;9459;50.254;19.014;2023-03-14T00:51:48;8.90;;;3.80;;
18659;SDS011;9459;50.254;19.014;2023-03-14T00:54:18;6.85;;;3.25;;
18659;SDS011;9459;50.254;19.014;2023-03-14T00:56:46;4.03;;;2.28;;
18659;SDS011;9459;50.254;19.014;2023-03-14T00:59:15;6.13;;;2.80;;
18659;SDS011;9459;50.254;19.014;2023-03-14T01:01:44;6.43;;;3.20;;
18659;SDS011;9459;50.254;19.014;2023-03-14T01:04:14;5.38;;;2.30;;
18659;SDS011;9459;50.254;19.014;2023-03-14T01:06:43;6.07;;;3.00;;
18659;SDS011;9459;50.254;19.014;2023-03-14T01:09:11;4.93;;;2.80;;
18659;SDS011;9459;50.254;19.014;2023-03-14T01:11:39;5.28;;;2.55;;
18659;SDS011;9459;50.254;19.014;2023-03-14T01:14:08;4.18;;;2.90;;
18659;SDS011;9459;50.254;19.014;2023-03-14T01:16:38;4.75;;;3.00;;
18659;SDS011;9459;50.254;19.014;2023-03-14T01:19:06;4.50;;;2.88;;
18659;SDS011;9459;50.254;19.014;2023-03-14T01:21:38;4.05;;;2.72;;
18659;SDS011;9459;50.254;19.014;2023-03-14T01:24:06;5.03;;;2.38;;
18659;SDS011;9459;50.254;19.014;2023-03-14T01:26:35;5.10;;;2.65;;
18659;SDS011;9459;50.254;19.014;2023-03-14T01:29:03;6.47;;;2.97;;
18659;SDS011;9459;50.254;19.014;2023-03-14T01:31:32;7.53;;;3.72;;
18659;SDS011;9459;50.254;19.014;2023-03-14T01:34:00;6.78;;;2.80;;
18659;SDS011;9459;50.254;19.014;2023-03-14T01:36:29;5.13;;;2.90;;
18659;SDS011;9459;50.254;19.014;2023-03-14T01:38:59;7.60;;;2.80;;
18659;SDS011;9459;50.254;19.014;2023-03-14T01:41:28;4.50;;;2.50;;
18659;SDS011;9459;50.254;19.014;2023-03-14T01:43:56;7.20;;;2.97;;
18659;SDS011;9459;50.254;19.014;2023-03-14T01:46:26;5.57;;;2.83;;
18659;SDS011;9459;50.254;19.014;2023-03-14T01:48:58;6.10;;;2.95;;
18659;SDS011;9459;50.254;19.014;2023-03-14T01:51:30;5.28;;;3.13;;
18659;SDS011;9459;50.254;19.014;2023-03-14T01:54:07;7.78;;;4.10;;
18659;SDS011;9459;50.254;19.014;2023-03-14T01:56:39;5.65;;;3.05;;
18659;SDS011;9459;50.254;19.014;2023-03-14T01:59:08;8.63;;;3.75;;
18659;SDS011;9459;50.254;19.014;2023-03-14T02:01:38;9.95;;;4.68;;
18659;SDS011;9459;50.254;19.014;2023-03-14T02:04:10;7.05;;;3.80;;
18659;SDS011;9459;50.254;19.014;2023-03-14T02:06:41;6.95;;;3.30;;
18659;SDS011;9459;50.254;19.014;2023-03-14T02:09:15;7.28;;;3.13;;
18659;SDS011;9459;50.254;19.014;2023-03-14T02:11:44;5.32;;;3.53;;
18659;SDS011;9459;50.254;19.014;2023-03-14T02:14:16;6.07;;;3.17;;
18659;SDS011;9459;50.254;19.014;2023-03-14T02:16:49;5.30;;;3.03;;
18659;SDS011;9459;50.254;19.014;2023-03-14T02:19:17;3.47;;;2.90;;
18659;SDS011;9459;50.254;19.014;2023-03-14T02:21:52;4.57;;;2.80;;
18659;SDS011;9459;50.254;19.014;2023-03-14T02:24:24;4.50;;;2.70;;
18659;SDS011;9459;50.254;19.014;2023-03-14T02:27:03;6.57;;;3.78;;
18659;SDS011;9459;50.254;19.014;2023-03-14T02:29:36;5.68;;;3.10;;
18659;SDS011;9459;50.254;19.014;2023-03-14T02:32:07;3.55;;;2.60;;
18659;SDS011;9459;50.254;19.014;2023-03-14T02:34:36;5.78;;;3.40;;
18659;SDS011;9459;50.254;19.014;2023-03-14T02:37:04;5.57;;;3.33;;
18659;SDS011;9459;50.254;19.014;2023-03-14T02:39:35;7.63;;;3.78;;
18659;SDS011;9459;50.254;19.014;2023-03-14T02:42:07;6.70;;;3.70;;
18659;SDS011;9459;50.254;19.014;2023-03-14T02:44:46;7.32;;;3.35;;
18659;SDS011;9459;50.254;19.014;2023-03-14T02:47:20;7.90;;;3.53;;
18659;SDS011;9459;50.254;19.014;2023-03-14T02:49:51;6.55;;;3.75;;
18659;SDS011;9459;50.254;19.014;2023-03-14T02:52:20;9.38;;;4.95;;
18659;SDS011;9459;50.254;19.014;2023-03-14T02:54:49;6.30;;;3.55;;
18659;SDS011;9459;50.254;19.014;2023-03-14T02:57:19;6.25;;;3.17;;
18659;SDS011;9459;50.254;19.014;2023-03-14T02:59:47;5.85;;;3.20;;
18659;SDS011;9459;50.254;19.014;2023-03-14T03:02:15;10.32;;;3.58;;
18659;SDS011;9459;50.254;19.014;2023-03-14T03:04:44;6.65;;;3.30;;
18659;SDS011;9459;50.254;19.014;2023-03-14T03:07:13;6.55;;;3.90;;
18659;SDS011;9459;50.254;19.014;2023-03-14T03:09:41;7.38;;;3.85;;
18659;SDS011;9459;50.254;19.014;2023-03-14T03:12:10;5.97;;;3.30;;
18659;SDS011;9459;50.254;19.014;2023-03-14T03:14:39;4.63;;;3.08;;
18659;SDS011;9459;50.254;19.014;2023-03-14T03:17:08;7.68;;;4.07;;
18659;SDS011;9459;50.254;19.014;2023-03-14T03:19:36;8.85;;;4.18;;
18659;SDS011;9459;50.254;19.014;2023-03-14T03:22:05;7.88;;;3.92;;
18659;SDS011;9459;50.254;19.014;2023-03-14T03:24:33;9.85;;;5.53;;
18659;SDS011;9459;50.254;19.014;2023-03-14T03:27:02;16.58;;;8.45;;
18659;SDS011;9459;50.254;19.014;2023-03-14T03:29:30;6.32;;;3.35;;
18659;SDS011;9459;50.254;19.014;2023-03-14T03:32:00;6.38;;;3.00;;
18659;SDS011;9459;50.254;19.014;2023-03-14T03:34:28;7.72;;;3.58;;
18659;SDS011;9459;50.254;19.014;2023-03-14T03:36:57;11.27;;;5.50;;
18659;SDS011;9459;50.254;19.014;2023-03-14T03:39:26;13.88;;;7.13;;
18659;SDS011;9459;50.254;19.014;2023-03-14T03:41:54;17.13;;;7.07;;
18659;SDS011;9459;50.254;19.014;2023-03-14T03:44:23;18.40;;;8.63;;
18659;SDS011;9459;50.254;19.014;2023-03-14T03:46:51;11.55;;;6.30;;
18659;SDS011;9459;50.254;19.014;2023-03-14T03:49:21;10.90;;;4.90;;
18659;SDS011;9459;50.254;19.014;2023-03-14T03:51:50;9.02;;;4.80;;
18659;SDS011;9459;50.254;19.014;2023-03-14T03:54:18;8.02;;;4.47;;
18659;SDS011;9459;50.254;19.014;2023-03-14T03:56:47;6.88;;;4.03;;
18659;SDS011;9459;50.254;19.014;2023-03-14T03:59:15;7.20;;;4.10;;
18659;SDS011;9459;50.254;19.014;2023-03-14T04:01:44;6.55;;;3.20;;
18659;SDS011;9459;50.254;19.014;2023-03-14T04:04:12;4.10;;;2.88;;
18659;SDS011;9459;50.254;19.014;2023-03-14T04:06:43;6.72;;;2.83;;
18659;SDS011;9459;50.254;19.014;2023-03-14T04:09:11;3.80;;;2.47;;
18659;SDS011;9459;50.254;19.014;2023-03-14T04:11:40;4.68;;;2.30;;
18659;SDS011;9459;50.254;19.014;2023-03-14T04:14:09;3.80;;;2.20;;
18659;SDS011;9459;50.254;19.014;2023-03-14T04:16:37;4.00;;;2.33;;
18659;SDS011;9459;50.254;19.014;2023-03-14T04:19:05;4.78;;;2.50;;
18659;SDS011;9459;50.254;19.014;2023-03-14T04:21:34;6.32;;;2.80;;
18659;SDS011;9459;50.254;19.014;2023-03-14T04:24:04;4.63;;;2.80;;
18659;SDS011;9459;50.254;19.014;2023-03-14T04:26:33;4.53;;;2.53;;
18659;SDS011;9459;50.254;19.014;2023-03-14T04:29:01;7.68;;;3.03;;
18659;SDS011;9459;50.254;19.014;2023-03-14T04:31:30;4.68;;;2.78;;
18659;SDS011;9459;50.254;19.014;2023-03-14T04:33:58;12.68;;;4.65;;
18659;SDS011;9459;50.254;19.014;2023-03-14T04:36:27;18.00;;;6.13;;
18659;SDS011;9459;50.254;19.014;2023-03-14T04:38:55;16.10;;;5.88;;
18659;SDS011;9459;50.254;19.014;2023-03-14T04:41:25;21.20;;;7.20;;
18659;SDS011;9459;50.254;19.014;2023-03-14T04:43:53;7.68;;;3.15;;
18659;SDS011;9459;50.254;19.014;2023-03-14T04:46:22;5.07;;;2.60;;
18659;SDS011;9459;50.254;19.014;2023-03-14T04:48:50;7.55;;;3.22;;
18659;SDS011;9459;50.254;19.014;2023-03-14T04:51:19;4.03;;;2.70;;
18659;SDS011;9459;50.254;19.014;2023-03-14T04:53:49;6.40;;;3.35;;
18659;SDS011;9459;50.254;19.014;2023-03-14T04:56:18;4.65;;;2.60;;
18659;SDS011;9459;50.254;19.014;2023-03-14T04:58:48;7.00;;;2.70;;
18659;SDS011;9459;50.254;19.014;2023-03-14T05:01:16;4.38;;;2.55;;
18659;SDS011;9459;50.254;19.014;2023-03-14T05:03:45;6.40;;;2.53;;
18659;SDS011;9459;50.254;19.014;2023-03-14T05:06:13;7.72;;;2.58;;
18659;SDS011;9459;50.254;19.014;2023-03-14T05:08:42;5.72;;;2.80;;
18659;SDS011;9459;50.254;19.014;2023-03-14T05:11:11;5.80;;;2.75;;
18659;SDS011;9459;50.254;19.014;2023-03-14T05:13:40;4.57;;;2.65;;
18659;SDS011;9459;50.254;19.014;2023-03-14T05:16:10;4.10;;;2.50;;
18659;SDS011;9459;50.254;19.014;2023-03-14T05:18:39;3.85;;;2.50;;
18659;SDS011;9459;50.254;19.014;2023-03-14T05:21:07;3.67;;;2.35;;
18659;SDS011;9459;50.254;19.014;2023-03-14T05:23:36;4.80;;;2.67;;
18659;SDS011;9459;50.254;19.014;2023-03-14T05:26:04;5.95;;;2.78;;
18659;SDS011;9459;50.254;19.014;2023-03-14T05:28:33;3.65;;;2.45;;
18659;SDS011;9459;50.254;19.014;2023-03-14T05:31:05;7.25;;;2.78;;
18659;SDS011;9459;50.254;19.014;2023-03-14T05:33:35;3.90;;;2.60;;
18659;SDS011;9459;50.254;19.014;2023-03-14T05:36:04;5.13;;;2.97;;
18659;SDS011;9459;50.254;19.014;2023-03-14T05:38:33;4.15;;;2.60;;
18659;SDS011;9459;50.254;19.014;2023-03-14T05:41:02;5.97;;;3.00;;
18659;SDS011;9459;50.254;19.014;2023-03-14T05:43:31;8.10;;;2.72;;
18659;SDS011;9459;50.254;19.014;2023-03-14T05:45:59;4.45;;;2.72;;
18659;SDS011;9459;50.254;19.014;2023-03-14T05:48:27;6.57;;;3.40;;
18659;SDS011;9459;50.254;19.014;2023-03-14T05:50:57;6.47;;;3.35;;
18659;SDS011;9459;50.254;19.014;2023-03-14T05:53:27;7.07;;;3.25;;
18659;SDS011;9459;50.254;19.014;2023-03-14T05:55:57;7.00;;;3.65;;
18659;SDS011;9459;50.254;19.014;2023-03-14T05:58:25;8.48;;;3.92;;
18659;SDS011;9459;50.254;19.014;2023-03-14T06:00:54;8.80;;;3.80;;
18659;SDS011;9459;50.254;19.014;2023-03-14T06:03:22;6.82;;;3.63;;
18659;SDS011;9459;50.254;19.014;2023-03-14T06:05:51;7.38;;;3.42;;
18659;SDS011;9459;50.254;19.014;2023-03-14T06:08:21;6.60;;;3.20;;
18659;SDS011;9459;50.254;19.014;2023-03-14T06:10:49;7.85;;;3.35;;
18659;SDS011;9459;50.254;19.014;2023-03-14T06:13:18;8.85;;;3.97;;
18659;SDS011;9459;50.254;19.014;2023-03-14T06:15:47;8.50;;;4.15;;
18659;SDS011;9459;50.254;19.014;2023-03-14T06:18:15;8.38;;;4.35;;
18659;SDS011;9459;50.254;19.014;2023-03-14T06:20:44;7.60;;;4.38;;
18659;SDS011;9459;50.254;19.014;2023-03-14T06:23:12;6.22;;;3.22;;
18659;SDS011;9459;50.254;19.014;2023-03-14T06:25:42;9.15;;;4.15;;
18659;SDS011;9459;50.254;19.014;2023-03-14T06:28:10;5.80;;;3.42;;
18659;SDS011;9459;50.254;19.014;2023-03-14T06:30:39;15.60;;;7.75;;
18659;SDS011;9459;50.254;19.014;2023-03-14T06:33:07;12.23;;;4.57;;
18659;SDS011;9459;50.254;19.014;2023-03-14T06:35:36;9.10;;;3.75;;
18659;SDS011;9459;50.254;19.014;2023-03-14T06:38:04;6.70;;;3.47;;
18659;SDS011;9459;50.254;19.014;2023-03-14T06:40:32;6.65;;;4.53;;
18659;SDS011;9459;50.254;19.014;2023-03-14T06:43:02;7.15;;;3.72;;
18659;SDS011;9459;50.254;19.014;2023-03-14T06:45:31;7.03;;;3.03;;
18659;SDS011;9459;50.254;19.014;2023-03-14T06:47:59;7.05;;;3.78;;
18659;SDS011;9459;50.254;19.014;2023-03-14T06:50:28;6.95;;;3.72;;
18659;SDS011;9459;50.254;19.014;2023-03-14T06:52:56;8.82;;;3.22;;
18659;SDS011;9459;50.254;19.014;2023-03-14T06:55:25;9.25;;;3.55;;
18659;SDS011;9459;50.254;19.014;2023-03-14T06:57:53;5.57;;;3.20;;
18659;SDS011;9459;50.254;19.014;2023-03-14T07:00:24;7.25;;;3.30;;
18659;SDS011;9459;50.254;19.014;2023-03-14T07:02:52;4.97;;;2.80;;
18659;SDS011;9459;50.254;19.014;2023-03-14T07:05:21;7.78;;;3.10;;
18659;SDS011;9459;50.254;19.014;2023-03-14T07:07:50;5.95;;;3.80;;
18659;SDS011;9459;50.254;19.014;2023-03-14T07:10:18;5.82;;;3.03;;
18659;SDS011;9459;50.254;19.014;2023-03-14T07:12:47;7.25;;;3.30;;
18659;SDS011;9459;50.254;19.014;2023-03-14T07:15:16;6.35;;;3.10;;
18659;SDS011;9459;50.254;19.014;2023-03-14T07:17:46;4.97;;;3.58;;
18659;SDS011;9459;50.254;19.014;2023-03-14T07:20:16;8.57;;;3.22;;
18659;SDS011;9459;50.254;19.014;2023-03-14T07:22:46;7.32;;;3.10;;
18659;SDS011;9459;50.254;19.014;2023-03-14T07:25:16;7.43;;;3.65;;
18659;SDS011;9459;50.254;19.014;2023-03-14T07:27:44;8.25;;;3.20;;
18659;SDS011;9459;50.254;19.014;2023-03-14T07:30:14;6.18;;;3.15;;
18659;SDS011;9459;50.254;19.014;2023-03-14T07:32:43;5.97;;;3.38;;
18659;SDS011;9459;50.254;19.014;2023-03-14T07:35:13;6.50;;;3.67;;
18659;SDS011;9459;50.254;19.014;2023-03-14T07:37:42;6.18;;;3.35;;
18659;SDS011;9459;50.254;19.014;2023-03-14T07:40:11;5.75;;;3.15;;
18659;SDS011;9459;50.254;19.014;2023-03-14T07:42:42;7.82;;;3.50;;
18659;SDS011;9459;50.254;19.014;2023-03-14T07:45:10;7.03;;;3.40;;
18659;SDS011;9459;50.254;19.014;2023-03-14T07:47:39;4.60;;;2.70;;
18659;SDS011;9459;50.254;19.014;2023-03-14T07:50:08;8.57;;;3.38;;
18659;SDS011;9459;50.254;19.014;2023-03-14T07:52:39;4.97;;;2.95;;
18659;SDS011;9459;50.254;19.014;2023-03-14T07:55:08;7.03;;;3.80;;
18659;SDS011;9459;50.254;19.014;2023-03-14T07:57:37;7.20;;;2.90;;
18659;SDS011;9459;50.254;19.014;2023-03-14T08:00:06;5.32;;;2.85;;
18659;SDS011;9459;50.254;19.014;2023-03-14T08:02:35;5.40;;;2.53;;
18659;SDS011;9459;50.254;19.014;2023-03-14T08:05:04;4.10;;;2.72;;
18659;SDS011;9459;50.254;19.014;2023-03-14T08:07:33;4.18;;;2.70;;
18659;SDS011;9459;50.254;19.014;2023-03-14T08:10:03;4.45;;;2.53;;
18659;SDS011;9459;50.254;19.014;2023-03-14T08:12:32;9.98;;;2.97;;
18659;SDS011;9459;50.254;19.014;2023-03-14T08:15:01;4.57;;;2.60;;
18659;SDS011;9459;50.254;19.014;2023-03-14T08:17:29;7.20;;;3.40;;
18659;SDS011;9459;50.254;19.014;2023-03-14T08:19:58;6.68;;;3.05;;
18659;SDS011;9459;50.254;19.014;2023-03-14T08:22:26;9.75;;;3.25;;
18659;SDS011;9459;50.254;19.014;2023-03-14T08:24:55;6.75;;;2.92;;
18659;SDS011;9459;50.254;19.014;2023-03-14T08:27:25;3.35;;;2.40;;
18659;SDS011;9459;50.254;19.014;2023-03-14T08:29:53;6.47;;;3.00;;
18659;SDS011;9459;50.254;19.014;2023-03-14T08:32:22;6.68;;;3.30;;
18659;SDS011;9459;50.254;19.014;2023-03-14T08:34:50;4.38;;;2.60;;
18659;SDS011;9459;50.254;19.014;2023-03-14T08:37:19;4.38;;;2.58;;
18659;SDS011;9459;50.254;19.014;2023-03-14T08:39:53;11.52;;;3.42;;
18659;SDS011;9459;50.254;19.014;2023-03-14T08:42:22;6.72;;;2.83;;
18659;SDS011;9459;50.254;19.014;2023-03-14T08:44:53;7.07;;;2.80;;
18659;SDS011;9459;50.254;19.014;2023-03-14T08:47:21;4.25;;;2.95;;
18659;SDS011;9459;50.254;19.014;2023-03-14T08:49:50;6.13;;;2.80;;
18659;SDS011;9459;50.254;19.014;2023-03-14T08:52:19;6.97;;;3.35;;
18659;SDS011;9459;50.254;19.014;2023-03-14T08:54:47;5.82;;;3.20;;
18659;SDS011;9459;50.254;19.014;2023-03-14T08:57:16;4.97;;;3.15;;
18659;SDS011;9459;50.254;19.014;2023-03-14T08:59:44;6.72;;;3.10;;
18659;SDS011;9459;50.254;19.014;2023-03-14T09:02:14;5.25;;;2.83;;
18659;SDS011;9459;50.254;19.014;2023-03-14T09:04:42;6.00;;;3.28;;
18659;SDS011;9459;50.254;19.014;2023-03-14T09:07:11;5.90;;;3.70;;
18659;SDS011;9459;50.254;19.014;2023-03-14T09:09:40;5.88;;;2.90;;
18659;SDS011;9459;50.254;19.014;2023-03-14T09:12:08;7.95;;;3.42;;
18659;SDS011;9459;50.254;19.014;2023-03-14T09:14:36;7.30;;;3.28;;
18659;SDS011;9459;50.254;19.014;2023-03-14T09:17:05;7.78;;;2.83;;
18659;SDS011;9459;50.254;19.014;2023-03-14T09:19:36;7.47;;;3.25;;
18659;SDS011;9459;50.254;19.014;2023-03-14T09:22:05;6.38;;;3.35;;
18659;SDS011;9459;50.254;19.014;2023-03-14T09:24:33;7.50;;;3.33;;
18659;SDS011;9459;50.254;19.014;2023-03-14T09:27:01;7.75;;;3.28;;
18659;SDS011;9459;50.254;19.014;2023-03-14T09:29:30;6.95;;;3.17;;
18659;SDS011;9459;50.254;19.014;2023-03-14T09:31:58;4.82;;;3.10;;
18659;SDS011;9459;50.254;19.014;2023-03-14T09:34:27;8.80;;;3.00;;
18659;SDS011;9459;50.254;19.014;2023-03-14T09:36:57;7.07;;;2.95;;
18659;SDS011;9459;50.254;19.014;2023-03-14T09:39:26;7.53;;;3.00;;
18659;SDS011;9459;50.254;19.014;2023-03-14T09:41:54;6.25;;;3.10;;
18659;SDS011;9459;50.254;19.014;2023-03-14T09:44:25;6.40;;;2.73;;
18659;SDS011;9459;50.254;19.014;2023-03-14T09:46:57;6.00;;;2.80;;
18659;SDS011;9459;50.254;19.014;2023-03-14T09:49:27;4.77;;;2.67;;
18659;SDS011;9459;50.254;19.014;2023-03-14T09:51:59;5.88;;;3.30;;
18659;SDS011;9459;50.254;19.014;2023-03-14T09:54:31;4.70;;;2.63;;
18659;SDS011;9459;50.254;19.014;2023-03-14T09:57:00;6.63;;;3.33;;
18659;SDS011;9459;50.254;19.014;2023-03-14T09:59:30;6.93;;;2.65;;
18659;SDS011;9459;50.254;19.014;2023-03-14T10:02:00;4.65;;;2.88;;
18659;SDS011;9459;50.254;19.014;2023-03-14T10:04:29;6.40;;;2.72;;
18659;SDS011;9459;50.254;19.014;2023-03-14T10:07:01;3.63;;;2.55;;
18659;SDS011;9459;50.254;19.014;2023-03-14T10:09:30;5.93;;;2.60;;
18659;SDS011;9459;50.254;19.014;2023-03-14T10:11:59;5.40;;;2.70;;
18659;SDS011;9459;50.254;19.014;2023-03-14T10:14:31;5.10;;;2.70;;
18659;SDS011;9459;50.254;19.014;2023-03-14T10:17:07;4.88;;;2.85;;
18659;SDS011;9459;50.254;19.014;2023-03-14T10:19:37;12.88;;;3.65;;
18659;SDS011;9459;50.254;19.014;2023-03-14T10:22:20;7.97;;;3.08;;
18659;SDS011;9459;50.254;19.014;2023-03-14T10:24:51;4.57;;;2.40;;
18659;SDS011;9459;50.254;19.014;2023-03-14T10:27:23;4.45;;;2.80;;
18659;SDS011;9459;50.254;19.014;2023-03-14T10:29:57;4.45;;;2.88;;
18659;SDS011;9459;50.254;19.014;2023-03-14T10:32:31;5.97;;;3.05;;
18659;SDS011;9459;50.254;19.014;2023-03-14T10:35:06;6.30;;;3.58;;
18659;SDS011;9459;50.254;19.014;2023-03-14T10:37:42;5.47;;;2.78;;
18659;SDS011;9459;50.254;19.014;2023-03-14T10:40:18;6.35;;;3.40;;
18659;SDS011;9459;50.254;19.014;2023-03-14T10:42:47;4.95;;;3.28;;
18659;SDS011;9459;50.254;19.014;2023-03-14T10:45:25;6.30;;;3.35;;
18659;SDS011;9459;50.254;19.014;2023-03-14T10:47:58;7.28;;;3.25;;
18659;SDS011;9459;50.254;19.014;2023-03-14T10:50:27;6.40;;;3.20;;
18659;SDS011;9459;50.254;19.014;2023-03-14T10:53:01;6.00;;;3.22;;
18659;SDS011;9459;50.254;19.014;2023-03-14T10:55:39;7.90;;;3.45;;
18659;SDS011;9459;50.254;19.014;2023-03-14T10:58:18;9.23;;;4.22;;
18659;SDS011;9459;50.254;19.014;2023-03-14T11:00:50;14.77;;;7.00;;
18659;SDS011;9459;50.254;19.014;2023-03-14T11:03:22;19.65;;;11.80;;
18659;SDS011;9459;50.254;19.014;2023-03-14T11:05:52;11.60;;;6.32;;
18659;SDS011;9459;50.254;19.014;2023-03-14T11:08:27;8.23;;;3.63;;
18659;SDS011;9459;50.254;19.014;2023-03-14T11:11:02;8.02;;;3.42;;
18659;SDS011;9459;50.254;19.014;2023-03-14T11:13:37;5.25;;;3.53;;
18659;SDS011;9459;50.254;19.014;2023-03-14T11:16:09;9.18;;;3.63;;
18659;SDS011;9459;50.254;19.014;2023-03-14T11:18:46;6.65;;;3.40;;
18659;SDS011;9459;50.254;19.014;2023-03-14T11:21:20;6.28;;;3.50;;
18659;SDS011;9459;50.254;19.014;2023-03-14T11:23:56;7.15;;;3.60;;
18659;SDS011;9459;50.254;19.014;2023-03-14T11:26:32;6.32;;;3.47;;
18659;SDS011;9459;50.254;19.014;2023-03-14T11:29:08;9.02;;;3.65;;
18659;SDS011;9459;50.254;19.014;2023-03-14T11:31:44;5.72;;;3.03;;
18659;SDS011;9459;50.254;19.014;2023-03-14T11:34:15;5.65;;;3.22;;
18659;SDS011;9459;50.254;19.014;2023-03-14T11:36:46;6.07;;;3.13;;
18659;SDS011;9459;50.254;19.014;2023-03-14T11:39:21;7.45;;;3.03;;
18659;SDS011;9459;50.254;19.014;2023-03-14T11:41:51;5.00;;;2.97;;
18659;SDS011;9459;50.254;19.014;2023-03-14T11:44:20;9.32;;;4.30;;
18659;SDS011;9459;50.254;19.014;2023-03-14T11:46:51;6.57;;;2.72;;
18659;SDS011;9459;50.254;19.014;2023-03-14T11:49:25;4.70;;;3.20;;
18659;SDS011;9459;50.254;19.014;2023-03-14T11:51:59;8.70;;;3.47;;
18659;SDS011;9459;50.254;19.014;2023-03-14T11:54:33;6.35;;;3.10;;
18659;SDS011;9459;50.254;19.014;2023-03-14T11:57:09;6.95;;;3.42;;
18659;SDS011;9459;50.254;19.014;2023-03-14T11:59:41;10.57;;;3.90;;
18659;SDS011;9459;50.254;19.014;2023-03-14T12:02:17;8.32;;;3.30;;
18659;SDS011;9459;50.254;19.014;2023-03-14T12:04:52;6.40;;;3.80;;
18659;SDS011;9459;50.254;19.014;2023-03-14T12:07:26;6.78;;;4.00;;
18659;SDS011;9459;50.254;19.014;2023-03-14T12:10:01;6.93;;;4.22;;
18659;SDS011;9459;50.254;19.014;2023-03-14T12:12:31;21.52;;;11.02;;
18659;SDS011;9459;50.254;19.014;2023-03-14T12:15:00;11.90;;;6.25;;
18659;SDS011;9459;50.254;19.014;2023-03-14T12:17:34;16.15;;;8.68;;
18659;SDS011;9459;50.254;19.014;2023-03-14T12:20:04;19.33;;;10.27;;
18659;SDS011;9459;50.254;19.014;2023-03-14T12:22:41;14.50;;;8.07;;
18659;SDS011;9459;50.254;19.014;2023-03-14T12:25:15;15.32;;;8.45;;
18659;SDS011;9459;50.254;19.014;2023-03-14T12:27:47;14.38;;;8.48;;
18659;SDS011;9459;50.254;19.014;2023-03-14T12:30:23;18.80;;;8.48;;
18659;SDS011;9459;50.254;19.014;2023-03-14T12:35:49;10.88;;;6.18;;
18659;SDS011;9459;50.254;19.014;2023-03-14T12:38:23;10.23;;;6.25;;
18659;SDS011;9459;50.254;19.014;2023-03-14T12:40:58;10.82;;;5.82;;
18659;SDS011;9459;50.254;19.014;2023-03-14T12:43:33;8.73;;;5.82;;
18659;SDS011;9459;50.254;19.014;2023-03-14T12:46:07;13.63;;;9.10;;
18659;SDS011;9459;50.254;19.014;2023-03-14T12:48:44;12.57;;;7.87;;
18659;SDS011;9459;50.254;19.014;2023-03-14T12:51:14;10.10;;;6.18;;
18659;SDS011;9459;50.254;19.014;2023-03-14T12:53:51;8.27;;;5.10;;
18659;SDS011;9459;50.254;19.014;2023-03-14T12:56:32;9.70;;;5.78;;
18659;SDS011;9459;50.254;19.014;2023-03-14T12:59:23;10.88;;;6.20;;
18659;SDS011;9459;50.254;19.014;2023-03-14T13:01:59;16.10;;;9.07;;
18659;SDS011;9459;50.254;19.014;2023-03-14T13:04:31;11.90;;;6.78;;
18659;SDS011;9459;50.254;19.014;2023-03-14T13:07:10;16.10;;;8.52;;
18659;SDS011;9459;50.254;19.014;2023-03-14T13:12:34;14.50;;;8.25;;
18659;SDS011;9459;50.254;19.014;2023-03-14T13:15:13;7.50;;;5.35;;
18659;SDS011;9459;50.254;19.014;2023-03-14T13:17:46;8.10;;;5.60;;
18659;SDS011;9459;50.254;19.014;2023-03-14T13:20:16;9.57;;;6.53;;
18659;SDS011;9459;50.254;19.014;2023-03-14T13:22:48;9.27;;;5.47;;
18659;SDS011;9459;50.254;19.014;2023-03-14T13:25:17;9.77;;;5.40;;
18659;SDS011;9459;50.254;19.014;2023-03-14T13:27:49;10.20;;;6.40;;
18659;SDS011;9459;50.254;19.014;2023-03-14T13:30:24;8.02;;;4.95;;
18659;SDS011;9459;50.254;19.014;2023-03-14T13:32:54;8.60;;;5.75;;
18659;SDS011;9459;50.254;19.014;2023-03-14T13:35:25;7.63;;;5.38;;
18659;SDS011;9459;50.254;19.014;2023-03-14T13:37:55;10.15;;;5.85;;
18659;SDS011;9459;50.254;19.014;2023-03-14T13:40:37;11.10;;;6.15;;
18659;SDS011;9459;50.254;19.014;2023-03-14T13:43:13;7.68;;;4.95;;
18659;SDS011;9459;50.254;19.014;2023-03-14T13:45:54;5.65;;;3.80;;
18659;SDS011;9459;50.254;19.014;2023-03-14T13:48:25;4.40;;;3.33;;
18659;SDS011;9459;50.254;19.014;2023-03-14T13:50:56;6.15;;;3.40;;
18659;SDS011;9459;50.254;19.014;2023-03-14T13:53:27;6.93;;;3.75;;
18659;SDS011;9459;50.254;19.014;2023-03-14T13:55:56;5.70;;;3.65;;
18659;SDS011;9459;50.254;19.014;2023-03-14T13:58:28;5.90;;;3.83;;
18659;SDS011;9459;50.254;19.014;2023-03-14T14:03:45;6.22;;;4.15;;
18659;SDS011;9459;50.254;19.014;2023-03-14T14:06:29;6.38;;;4.10;;
18659;SDS011;9459;50.254;19.014;2023-03-14T14:09:03;6.40;;;3.88;;
18659;SDS011;9459;50.254;19.014;2023-03-14T14:11:38;9.68;;;4.70;;
18659;SDS011;9459;50.254;19.014;2023-03-14T14:14:21;7.25;;;3.80;;
18659;SDS011;9459;50.254;19.014;2023-03-14T14:16:53;6.43;;;3.55;;
18659;SDS011;9459;50.254;19.014;2023-03-14T14:19:22;7.30;;;4.15;;
18659;SDS011;9459;50.254;19.014;2023-03-14T14:21:51;7.18;;;3.58;;
18659;SDS011;9459;50.254;19.014;2023-03-14T14:24:20;5.95;;;3.47;;
18659;SDS011;9459;50.254;19.014;2023-03-14T14:26:51;10.40;;;3.80;;
18659;SDS011;9459;50.254;19.014;2023-03-14T14:29:26;9.90;;;4.97;;
18659;SDS011;9459;50.254;19.014;2023-03-14T14:32:03;9.18;;;4.50;;
18659;SDS011;9459;50.254;19.014;2023-03-14T14:34:39;11.07;;;5.97;;
18659;SDS011;9459;50.254;19.014;2023-03-14T14:37:19;7.63;;;4.40;;
18659;SDS011;9459;50.254;19.014;2023-03-14T14:39:48;8.93;;;4.80;;
18659;SDS011;9459;50.254;19.014;2023-03-14T14:42:18;12.90;;;6.00;;
18659;SDS011;9459;50.254;19.014;2023-03-14T14:44:50;16.15;;;7.05;;
18659;SDS011;9459;50.254;19.014;2023-03-14T14:47:20;10.90;;;5.47;;
18659;SDS011;9459;50.254;19.014;2023-03-14T14:49:51;6.65;;;3.42;;
18659;SDS011;9459;50.254;19.014;2023-03-14T14:52:21;9.50;;;3.90;;
18659;SDS011;9459;50.254;19.014;2023-03-14T14:54:57;21.20;;;8.43;;
18659;SDS011;9459;50.254;19.014;2023-03-14T15:00:00;6.78;;;3.65;;
18659;SDS011;9459;50.254;19.014;2023-03-14T15:02:35;6.80;;;4.40;;
18659;SDS011;9459;50.254;19.014;2023-03-14T15:05:08;13.25;;;6.57;;
18659;SDS011;9459;50.254;19.014;2023-03-14T15:07:40;13.50;;;6.18;;
18659;SDS011;9459;50.254;19.014;2023-03-14T15:10:09;16.58;;;8.98;;
18659;SDS011;9459;50.254;19.014;2023-03-14T15:12:39;14.18;;;7.57;;
18659;SDS011;9459;50.254;19.014;2023-03-14T15:15:10;9.07;;;4.72;;
18659;SDS011;9459;50.254;19.014;2023-03-14T15:17:39;12.75;;;6.95;;